createdAt,value
2017-03-23T00:00:31.782Z,21.69
2017-03-23T00:01:40.540Z,21.62
2017-03-23T00:02:49.294Z,21.6
2017-03-23T00:03:58.022Z,21.61
2017-03-23T00:05:06.977Z,21.62
2017-03-23T00:06:15.677Z,21.6
2017-03-23T00:07:24.416Z,21.61
2017-03-23T00:08:33.146Z,21.6
2017-03-23T00:09:42.177Z,21.57
2017-03-23T00:10:50.895Z,21.54
2017-03-23T00:11:59.928Z,21.64
2017-03-23T00:13:08.654Z,21.51
2017-03-23T00:14:17.712Z,21.5
2017-03-23T00:15:26.676Z,21.58
2017-03-23T00:16:35.743Z,21.52
2017-03-23T00:17:44.494Z,21.51
2017-03-23T00:18:53.565Z,21.57
2017-03-23T00:20:02.289Z,21.52
2017-03-23T00:21:10.990Z,21.52
2017-03-23T00:22:19.718Z,21.52
2017-03-23T00:23:28.487Z,21.51
2017-03-23T00:24:37.253Z,21.51
2017-03-23T00:25:46.012Z,21.54
2017-03-23T00:26:55.077Z,21.45
2017-03-23T00:28:03.807Z,21.5
2017-03-23T00:29:13.151Z,21.52
2017-03-23T00:30:21.915Z,21.46
2017-03-23T00:31:30.680Z,21.5
2017-03-23T00:32:39.441Z,21.45
2017-03-23T00:33:48.205Z,21.37
2017-03-23T00:34:56.955Z,21.43
2017-03-23T00:36:06.291Z,21.4
2017-03-23T00:37:15.054Z,21.43
2017-03-23T00:38:23.979Z,21.45
2017-03-23T00:39:32.702Z,21.43
2017-03-23T00:40:41.431Z,21.4
2017-03-23T00:41:50.347Z,21.45
2017-03-23T00:42:59.142Z,21.42
2017-03-23T00:44:07.857Z,21.39
2017-03-23T00:45:16.600Z,21.43
2017-03-23T00:46:25.395Z,21.42
2017-03-23T00:47:34.255Z,21.4
2017-03-23T00:48:43.359Z,21.4
2017-03-23T00:49:52.121Z,21.4
2017-03-23T00:51:00.876Z,21.42
2017-03-23T00:52:09.642Z,21.36
2017-03-23T00:53:18.407Z,21.36
2017-03-23T00:54:27.169Z,21.39
2017-03-23T00:55:35.924Z,21.36
2017-03-23T00:56:44.829Z,21.36
2017-03-23T00:57:53.885Z,21.32
2017-03-23T00:59:02.643Z,21.35
2017-03-23T01:00:11.412Z,21.27
2017-03-23T01:01:20.390Z,21.35
2017-03-23T01:02:29.122Z,21.3
2017-03-23T01:03:37.837Z,21.35
2017-03-23T01:04:46.869Z,21.39
2017-03-23T01:05:55.621Z,21.3
2017-03-23T01:07:04.390Z,21.3
2017-03-23T01:08:13.148Z,21.35
2017-03-23T01:09:22.198Z,21.39
2017-03-23T01:10:30.956Z,21.25
2017-03-23T01:11:39.713Z,21.24
2017-03-23T01:12:48.706Z,21.18
2017-03-23T01:13:57.616Z,21.21
2017-03-23T01:15:06.956Z,21.18
2017-03-23T01:16:15.718Z,21.27
2017-03-23T01:17:24.454Z,21.24
2017-03-23T01:18:33.176Z,21.24
2017-03-23T01:19:42.217Z,21.25
2017-03-23T01:20:51.541Z,21.24
2017-03-23T01:22:00.262Z,21.29
2017-03-23T01:23:08.990Z,21.27
2017-03-23T01:24:18.359Z,21.22
2017-03-23T01:25:27.421Z,21.27
2017-03-23T01:26:36.142Z,21.22
2017-03-23T01:27:45.170Z,21.21
2017-03-23T01:28:53.931Z,21.22
2017-03-23T01:30:02.707Z,21.22
2017-03-23T01:31:11.666Z,21.22
2017-03-23T01:32:20.385Z,21.25
2017-03-23T01:33:29.412Z,21.2
2017-03-23T01:34:38.125Z,21.25
2017-03-23T01:35:47.126Z,21.21
2017-03-23T01:36:55.864Z,21.21
2017-03-23T01:38:04.628Z,21.2
2017-03-23T01:39:13.682Z,21.2
2017-03-23T01:40:22.438Z,21.18
2017-03-23T01:41:31.210Z,21.2
2017-03-23T01:42:39.969Z,21.17
2017-03-23T01:43:48.721Z,21.21
2017-03-23T01:44:57.739Z,21.21
2017-03-23T01:46:06.506Z,21.12
2017-03-23T01:47:15.268Z,21.11
2017-03-23T01:48:24.027Z,21.15
2017-03-23T01:49:33.088Z,21.21
2017-03-23T01:50:41.811Z,21.12
2017-03-23T01:51:50.544Z,21.17
2017-03-23T01:52:59.305Z,21.18
2017-03-23T01:54:08.072Z,21.15
2017-03-23T01:55:16.827Z,21.12
2017-03-23T01:56:25.580Z,21.12
2017-03-23T01:57:34.333Z,21.14
2017-03-23T01:58:43.074Z,21.11
2017-03-23T01:59:52.107Z,21.11
2017-03-23T02:01:01.165Z,21.11
2017-03-23T02:02:10.074Z,21.14
2017-03-23T02:03:18.834Z,21.2
2017-03-23T02:04:27.889Z,21.11
2017-03-23T02:05:36.654Z,21.11
2017-03-23T02:06:45.417Z,21.12
2017-03-23T02:07:54.176Z,21.03
2017-03-23T02:09:03.240Z,21.09
2017-03-23T02:10:12.268Z,21.09
2017-03-23T02:11:21.031Z,21.09
2017-03-23T02:12:29.792Z,21.12
2017-03-23T02:13:38.554Z,21.09
2017-03-23T02:14:47.356Z,21.06
2017-03-23T02:15:56.128Z,21.07
2017-03-23T02:17:05.186Z,21.09
2017-03-23T02:18:13.949Z,21.06
2017-03-23T02:19:22.715Z,21.06
2017-03-23T02:20:31.484Z,21.07
2017-03-23T02:21:40.243Z,21.05
2017-03-23T02:22:49.311Z,21.07
2017-03-23T02:23:58.075Z,21.05
2017-03-23T02:25:06.795Z,21.03
2017-03-23T02:26:15.521Z,21.05
2017-03-23T02:27:24.282Z,21.09
2017-03-23T02:28:33.053Z,21.03
2017-03-23T02:29:41.818Z,21.07
2017-03-23T02:30:50.540Z,21.03
2017-03-23T02:31:59.277Z,20.97
2017-03-23T02:33:08.309Z,21.06
2017-03-23T02:34:17.070Z,20.96
2017-03-23T02:35:26.031Z,21.05
2017-03-23T02:36:34.796Z,21.03
2017-03-23T02:37:43.561Z,21.02
2017-03-23T02:38:52.282Z,20.97
2017-03-23T02:40:01.012Z,20.97
2017-03-23T02:41:09.733Z,20.99
2017-03-23T02:42:18.466Z,20.96
2017-03-23T02:43:27.222Z,21.03
2017-03-23T02:44:35.940Z,20.93
2017-03-23T02:45:44.877Z,20.96
2017-03-23T02:46:53.792Z,20.92
2017-03-23T02:48:02.506Z,20.9
2017-03-23T02:49:11.196Z,20.97
2017-03-23T02:50:20.240Z,20.93
2017-03-23T02:51:29.011Z,20.93
2017-03-23T02:52:37.766Z,20.93
2017-03-23T02:53:46.518Z,20.95
2017-03-23T02:54:55.278Z,20.93
2017-03-23T02:56:04.336Z,20.92
2017-03-23T02:57:13.097Z,20.92
2017-03-23T02:58:21.865Z,20.95
2017-03-23T02:59:30.588Z,20.93
2017-03-23T03:00:39.582Z,20.87
2017-03-23T03:01:48.319Z,20.96
2017-03-23T03:02:57.077Z,20.93
2017-03-23T03:04:05.841Z,20.97
2017-03-23T03:05:14.604Z,20.93
2017-03-23T03:06:23.368Z,20.92
2017-03-23T03:07:32.128Z,20.87
2017-03-23T03:08:40.849Z,20.87
2017-03-23T03:09:49.883Z,20.92
2017-03-23T03:10:58.599Z,20.82
2017-03-23T03:12:07.332Z,20.92
2017-03-23T03:13:16.397Z,20.87
2017-03-23T03:14:25.121Z,20.9
2017-03-23T03:15:33.808Z,20.88
2017-03-23T03:16:42.541Z,20.85
2017-03-23T03:17:51.893Z,20.84
2017-03-23T03:19:00.623Z,20.87
2017-03-23T03:20:09.384Z,20.81
2017-03-23T03:21:18.142Z,20.81
2017-03-23T03:22:26.904Z,20.8
2017-03-23T03:23:35.629Z,20.82
2017-03-23T03:24:44.357Z,20.78
2017-03-23T03:25:53.120Z,20.81
2017-03-23T03:27:01.878Z,20.8
2017-03-23T03:28:10.940Z,20.87
2017-03-23T03:29:19.694Z,20.8
2017-03-23T03:30:28.446Z,20.84
2017-03-23T03:31:37.212Z,20.78
2017-03-23T03:32:46.570Z,20.74
2017-03-23T03:33:55.336Z,20.81
2017-03-23T03:35:04.400Z,20.84
2017-03-23T03:36:13.168Z,20.78
2017-03-23T03:37:21.888Z,20.82
2017-03-23T03:38:30.620Z,20.87
2017-03-23T03:39:39.378Z,20.8
2017-03-23T03:40:48.139Z,20.8
2017-03-23T03:41:57.572Z,20.82
2017-03-23T03:43:06.368Z,20.84
2017-03-23T03:44:15.430Z,20.82
2017-03-23T03:45:24.484Z,20.78
2017-03-23T03:46:33.254Z,20.84
2017-03-23T03:47:42.015Z,20.77
2017-03-23T03:48:50.773Z,20.77
2017-03-23T03:49:59.823Z,20.77
2017-03-23T03:51:09.068Z,20.85
2017-03-23T03:52:24.180Z,20.84
2017-03-23T03:53:32.954Z,20.81
2017-03-23T03:54:41.725Z,20.74
2017-03-23T03:55:50.494Z,20.9
2017-03-23T03:56:59.330Z,20.8
2017-03-23T03:58:08.375Z,20.8
2017-03-23T03:59:17.128Z,20.88
2017-03-23T04:00:26.457Z,20.8
2017-03-23T04:01:35.237Z,20.81
2017-03-23T04:02:43.971Z,20.77
2017-03-23T04:03:52.772Z,20.84
2017-03-23T04:05:01.547Z,20.84
2017-03-23T04:06:10.328Z,20.72
2017-03-23T04:07:19.103Z,20.77
2017-03-23T04:08:27.884Z,20.74
2017-03-23T04:09:36.661Z,20.77
2017-03-23T04:10:45.446Z,20.77
2017-03-23T04:11:54.216Z,20.74
2017-03-23T04:13:02.955Z,20.75
2017-03-23T04:14:11.699Z,20.69
2017-03-23T04:15:20.519Z,20.75
2017-03-23T04:16:29.257Z,20.74
2017-03-23T04:17:38.014Z,20.78
2017-03-23T04:18:47.098Z,20.7
2017-03-23T04:19:55.878Z,20.72
2017-03-23T04:21:04.753Z,20.7
2017-03-23T04:22:13.524Z,20.7
2017-03-23T04:23:22.260Z,20.69
2017-03-23T04:24:31.007Z,20.72
2017-03-23T04:25:40.091Z,20.66
2017-03-23T04:26:48.873Z,20.66
2017-03-23T04:27:57.805Z,20.65
2017-03-23T04:29:06.857Z,20.66
2017-03-23T04:30:15.972Z,20.74
2017-03-23T04:31:25.047Z,20.65
2017-03-23T04:32:33.792Z,20.66
2017-03-23T04:33:42.871Z,20.67
2017-03-23T04:34:51.620Z,20.65
2017-03-23T04:36:00.402Z,20.7
2017-03-23T04:37:09.485Z,20.67
2017-03-23T04:38:18.264Z,20.7
2017-03-23T04:39:27.031Z,20.72
2017-03-23T04:40:35.807Z,20.69
2017-03-23T04:41:44.593Z,20.63
2017-03-23T04:42:53.363Z,20.66
2017-03-23T04:44:02.143Z,20.67
2017-03-23T04:45:10.920Z,20.6
2017-03-23T04:46:19.939Z,20.67
2017-03-23T04:47:28.663Z,20.66
2017-03-23T04:48:37.490Z,20.62
2017-03-23T04:49:46.267Z,20.66
2017-03-23T04:50:55.412Z,20.69
2017-03-23T04:52:04.471Z,20.65
2017-03-23T04:53:13.220Z,20.66
2017-03-23T04:54:22.606Z,20.65
2017-03-23T04:55:31.658Z,20.65
2017-03-23T04:56:40.666Z,20.65
2017-03-23T04:57:49.416Z,20.66
2017-03-23T04:58:58.155Z,20.65
2017-03-23T05:00:06.863Z,20.63
2017-03-23T05:01:15.614Z,20.65
2017-03-23T05:02:24.394Z,20.75
2017-03-23T05:03:33.472Z,20.66
2017-03-23T05:04:42.563Z,20.69
2017-03-23T05:05:51.592Z,20.67
2017-03-23T05:07:00.670Z,20.67
2017-03-23T05:08:09.406Z,20.67
2017-03-23T05:09:18.449Z,20.74
2017-03-23T05:10:27.222Z,20.77
2017-03-23T05:11:36.005Z,20.78
2017-03-23T05:12:44.780Z,20.75
2017-03-23T05:13:53.819Z,20.74
2017-03-23T05:15:02.893Z,20.72
2017-03-23T05:16:11.665Z,20.74
2017-03-23T05:17:20.703Z,20.77
2017-03-23T05:18:29.447Z,20.81
2017-03-23T05:19:38.517Z,20.8
2017-03-23T05:20:47.301Z,20.84
2017-03-23T05:21:56.039Z,20.77
2017-03-23T05:23:04.780Z,20.8
2017-03-23T05:24:13.554Z,20.82
2017-03-23T05:25:22.332Z,20.84
2017-03-23T05:26:31.084Z,20.81
2017-03-23T05:27:39.855Z,20.84
2017-03-23T05:28:48.628Z,20.84
2017-03-23T05:29:57.408Z,20.85
2017-03-23T05:31:06.182Z,20.81
2017-03-23T05:32:14.954Z,20.84
2017-03-23T05:33:23.682Z,20.87
2017-03-23T05:34:32.427Z,20.87
2017-03-23T05:35:41.513Z,20.88
2017-03-23T05:36:50.558Z,20.87
2017-03-23T05:37:59.305Z,20.96
2017-03-23T05:39:08.081Z,20.92
2017-03-23T05:40:16.862Z,20.93
2017-03-23T05:41:25.893Z,20.95
2017-03-23T05:42:34.604Z,20.92
2017-03-23T05:43:43.546Z,20.92
2017-03-23T05:44:52.624Z,20.88
2017-03-23T05:46:01.700Z,21.02
2017-03-23T05:47:10.473Z,21
2017-03-23T05:48:19.207Z,21.03
2017-03-23T05:49:27.954Z,20.99
2017-03-23T05:50:36.730Z,21.05
2017-03-23T05:51:45.510Z,21.12
2017-03-23T05:52:54.694Z,21.06
2017-03-23T05:54:03.473Z,21.12
2017-03-23T05:55:12.245Z,21.15
2017-03-23T05:56:20.980Z,21.12
2017-03-23T05:57:29.734Z,21.14
2017-03-23T05:58:38.509Z,21.09
2017-03-23T05:59:47.283Z,21.17
2017-03-23T06:00:56.018Z,21.18
2017-03-23T06:02:05.075Z,21.22
2017-03-23T06:03:14.158Z,21.2
2017-03-23T06:04:22.938Z,21.2
2017-03-23T06:05:32.032Z,21.25
2017-03-23T06:06:41.077Z,21.22
2017-03-23T06:07:49.836Z,21.25
2017-03-23T06:08:58.614Z,21.22
2017-03-23T06:10:07.362Z,21.3
2017-03-23T06:11:16.717Z,21.22
2017-03-23T06:12:25.501Z,21.3
2017-03-23T06:13:34.290Z,21.29
2017-03-23T06:14:43.987Z,21.33
2017-03-23T06:15:52.765Z,21.32
2017-03-23T06:17:01.546Z,21.36
2017-03-23T06:18:10.323Z,21.4
2017-03-23T06:19:19.107Z,21.42
2017-03-23T06:20:28.454Z,21.42
2017-03-23T06:21:37.500Z,21.42
2017-03-23T06:22:46.247Z,21.42
2017-03-23T06:23:55.025Z,21.46
2017-03-23T06:25:04.110Z,21.43
2017-03-23T06:26:13.486Z,21.48
2017-03-23T06:27:22.223Z,21.55
2017-03-23T06:28:30.986Z,21.5
2017-03-23T06:29:39.723Z,21.55
2017-03-23T06:30:48.671Z,21.58
2017-03-23T06:31:57.450Z,21.58
2017-03-23T06:33:06.226Z,21.54
2017-03-23T06:34:15.003Z,21.61
2017-03-23T06:35:23.785Z,21.6
2017-03-23T06:36:33.169Z,21.66
2017-03-23T06:37:41.946Z,21.62
2017-03-23T06:38:50.727Z,21.69
2017-03-23T06:39:59.459Z,21.66
2017-03-23T06:41:08.721Z,21.82
2017-03-23T06:42:17.502Z,21.69
2017-03-23T06:43:26.275Z,21.67
2017-03-23T06:44:35.056Z,21.77
2017-03-23T06:45:44.141Z,21.76
2017-03-23T06:46:52.890Z,21.7
2017-03-23T06:48:01.964Z,21.76
2017-03-23T06:49:10.748Z,21.79
2017-03-23T06:50:19.819Z,21.8
2017-03-23T06:51:28.900Z,21.91
2017-03-23T06:52:37.625Z,21.92
2017-03-23T06:53:46.378Z,21.92
2017-03-23T06:54:55.723Z,21.99
2017-03-23T06:56:04.773Z,21.99
2017-03-23T06:57:13.554Z,22.08
2017-03-23T06:58:22.477Z,22.1
2017-03-23T06:59:31.226Z,22.11
2017-03-23T07:00:40.205Z,22.15
2017-03-23T07:01:49.020Z,22.14
2017-03-23T07:02:57.793Z,22.25
2017-03-23T07:04:06.569Z,22.29
2017-03-23T07:05:15.655Z,22.32
2017-03-23T07:06:25.045Z,22.32
2017-03-23T07:07:33.820Z,22.41
2017-03-23T07:08:42.908Z,22.35
2017-03-23T07:09:51.998Z,22.38
2017-03-23T07:11:01.338Z,22.47
2017-03-23T07:12:10.093Z,22.5
2017-03-23T07:13:18.876Z,22.63
2017-03-23T07:14:27.654Z,22.69
2017-03-23T07:15:36.731Z,22.65
2017-03-23T07:16:45.499Z,22.7
2017-03-23T07:17:54.525Z,22.8
2017-03-23T07:19:03.602Z,22.93
2017-03-23T07:20:12.378Z,23.03
2017-03-23T07:21:21.186Z,23.12
2017-03-23T07:22:30.282Z,23.21
2017-03-23T07:23:39.064Z,23.36
2017-03-23T07:24:47.871Z,23.51
2017-03-23T07:25:56.945Z,23.59
2017-03-23T07:27:05.719Z,23.62
2017-03-23T07:28:14.476Z,23.69
2017-03-23T07:29:23.234Z,23.81
2017-03-23T07:30:32.623Z,24.02
2017-03-23T07:31:41.703Z,24.06
2017-03-23T07:32:51.062Z,24.18
2017-03-23T07:34:00.441Z,24.29
2017-03-23T07:35:09.783Z,24.32
2017-03-23T07:36:18.875Z,24.39
2017-03-23T07:37:27.651Z,24.43
2017-03-23T07:38:36.739Z,24.61
2017-03-23T07:39:45.822Z,24.68
2017-03-23T07:40:54.666Z,24.68
2017-03-23T07:42:03.414Z,24.66
2017-03-23T07:43:12.185Z,24.78
2017-03-23T07:44:21.214Z,24.91
2017-03-23T07:45:29.962Z,24.98
2017-03-23T07:46:38.735Z,25.04
2017-03-23T07:47:47.515Z,25.16
2017-03-23T07:48:56.299Z,25.13
2017-03-23T07:50:05.085Z,25.29
2017-03-23T07:51:13.869Z,25.22
2017-03-23T07:52:22.646Z,25.32
2017-03-23T07:53:31.422Z,25.29
2017-03-23T07:54:40.194Z,25.32
2017-03-23T07:55:48.976Z,25.28
2017-03-23T07:56:57.753Z,25.32
2017-03-23T07:58:06.531Z,25.35
2017-03-23T07:59:15.313Z,25.36
2017-03-23T08:00:24.431Z,25.29
2017-03-23T08:01:33.216Z,25.31
2017-03-23T08:02:42.029Z,25.28
2017-03-23T08:03:50.807Z,25.29
2017-03-23T08:05:00.045Z,25.21
2017-03-23T08:06:09.102Z,25.26
2017-03-23T08:07:18.160Z,25.22
2017-03-23T08:08:26.941Z,25.21
2017-03-23T08:09:36.024Z,25.17
2017-03-23T08:10:44.758Z,25.17
2017-03-23T08:11:53.813Z,25.14
2017-03-23T08:13:03.057Z,25.22
2017-03-23T08:14:11.947Z,25.14
2017-03-23T08:15:20.691Z,25.07
2017-03-23T08:16:29.782Z,25.08
2017-03-23T08:17:38.562Z,25.21
2017-03-23T08:18:47.342Z,25.16
2017-03-23T08:19:56.428Z,25.16
2017-03-23T08:21:05.204Z,25.22
2017-03-23T08:22:14.282Z,25.22
2017-03-23T08:23:23.269Z,25.23
2017-03-23T08:24:32.048Z,25.23
2017-03-23T08:25:40.832Z,25.25
2017-03-23T08:26:49.575Z,25.26
2017-03-23T08:27:58.282Z,25.32
2017-03-23T08:29:07.040Z,25.33
2017-03-23T08:30:15.776Z,25.33
2017-03-23T08:31:24.525Z,25.33
2017-03-23T08:32:33.303Z,25.36
2017-03-23T08:33:42.382Z,25.4
2017-03-23T08:34:51.468Z,25.47
2017-03-23T08:36:00.247Z,25.41
2017-03-23T08:37:09.333Z,25.43
2017-03-23T08:38:18.118Z,25.51
2017-03-23T08:39:27.202Z,25.53
2017-03-23T08:40:35.980Z,25.55
2017-03-23T08:41:45.374Z,25.53
2017-03-23T08:42:54.154Z,25.53
2017-03-23T08:44:02.966Z,25.59
2017-03-23T08:45:12.086Z,25.62
2017-03-23T08:46:21.471Z,25.63
2017-03-23T08:47:30.245Z,25.66
2017-03-23T08:48:39.328Z,25.66
2017-03-23T08:49:48.105Z,25.69
2017-03-23T08:50:57.397Z,25.65
2017-03-23T08:52:06.134Z,25.72
2017-03-23T08:53:14.890Z,25.81
2017-03-23T08:54:23.976Z,25.78
2017-03-23T08:55:32.753Z,25.87
2017-03-23T08:56:41.849Z,25.88
2017-03-23T08:57:50.932Z,25.78
2017-03-23T08:58:59.702Z,25.77
2017-03-23T09:00:08.790Z,25.95
2017-03-23T09:01:17.569Z,25.84
2017-03-23T09:02:26.349Z,25.93
2017-03-23T09:03:35.132Z,25.93
2017-03-23T09:04:43.915Z,26.07
2017-03-23T09:05:52.701Z,26.15
2017-03-23T09:07:01.495Z,26.1
2017-03-23T09:08:10.893Z,26.21
2017-03-23T09:09:19.679Z,26.21
2017-03-23T09:10:28.772Z,26.28
2017-03-23T09:11:37.755Z,26.34
2017-03-23T09:12:46.531Z,26.4
2017-03-23T09:13:55.327Z,26.53
2017-03-23T09:15:04.107Z,26.75
2017-03-23T09:16:13.204Z,26.9
2017-03-23T09:17:22.247Z,27.18
2017-03-23T09:18:30.960Z,27.59
2017-03-23T09:19:39.716Z,28
2017-03-23T09:20:48.494Z,28.47
2017-03-23T09:21:57.888Z,28.94
2017-03-23T09:23:06.979Z,29.36
2017-03-23T09:24:15.756Z,29.88
2017-03-23T09:25:24.799Z,30.05
2017-03-23T09:26:33.861Z,30.43
2017-03-23T09:27:42.642Z,30.78
2017-03-23T09:28:51.424Z,31.02
2017-03-23T09:30:00.203Z,31.37
2017-03-23T09:31:09.798Z,31.74
2017-03-23T09:32:18.891Z,32.19
2017-03-23T09:33:27.679Z,32.53
2017-03-23T09:34:36.756Z,32.83
2017-03-23T09:35:45.848Z,33.14
2017-03-23T09:36:54.926Z,33.43
2017-03-23T09:38:04.005Z,33.64
2017-03-23T09:39:13.097Z,33.92
2017-03-23T09:40:21.877Z,34.06
2017-03-23T09:41:30.617Z,34.25
2017-03-23T09:42:40.595Z,34.39
2017-03-23T09:43:49.368Z,34.51
2017-03-23T09:44:58.494Z,34.27
2017-03-23T09:46:07.268Z,34.18
2017-03-23T09:47:16.050Z,34.38
2017-03-23T09:48:24.831Z,34.57
2017-03-23T09:49:33.576Z,34.83
2017-03-23T09:50:42.293Z,34.89
2017-03-23T09:51:51.056Z,34.92
2017-03-23T09:53:00.142Z,35.1
2017-03-23T09:54:08.926Z,35.22
2017-03-23T09:55:18.022Z,35.15
2017-03-23T09:56:27.105Z,35
2017-03-23T09:57:35.891Z,34.81
2017-03-23T09:58:44.674Z,34.7
2017-03-23T09:59:53.425Z,34.45
2017-03-23T10:01:03.016Z,34.2
2017-03-23T10:02:11.804Z,33.68
2017-03-23T10:03:20.598Z,33.52
2017-03-23T10:04:29.680Z,33.68
2017-03-23T10:05:38.463Z,33.98
2017-03-23T10:06:47.212Z,34.36
2017-03-23T10:07:56.074Z,34.74
2017-03-23T10:09:05.124Z,35.1
2017-03-23T10:10:13.895Z,35.39
2017-03-23T10:11:22.881Z,35.36
2017-03-23T10:12:31.654Z,35.26
2017-03-23T10:13:40.632Z,35.46
2017-03-23T10:14:49.372Z,35.73
2017-03-23T10:15:58.327Z,36.12
2017-03-23T10:17:07.114Z,36.35
2017-03-23T10:18:16.185Z,36.49
2017-03-23T10:19:24.968Z,36.67
2017-03-23T10:20:34.058Z,36.91
2017-03-23T10:21:43.309Z,37.25
2017-03-23T10:22:52.063Z,37.35
2017-03-23T10:24:00.837Z,37.56
2017-03-23T10:25:09.613Z,37.83
2017-03-23T10:26:18.702Z,38.01
2017-03-23T10:27:27.492Z,38.15
2017-03-23T10:28:36.269Z,38.39
2017-03-23T10:29:45.063Z,38.64
2017-03-23T10:30:53.862Z,38.77
2017-03-23T10:32:02.652Z,39.04
2017-03-23T10:33:11.433Z,39.19
2017-03-23T10:34:20.220Z,39.44
2017-03-23T10:35:29.005Z,39.53
2017-03-23T10:36:37.792Z,39.65
2017-03-23T10:37:46.888Z,39.77
2017-03-23T10:38:55.969Z,39.92
2017-03-23T10:40:04.734Z,40.09
2017-03-23T10:41:13.491Z,40.18
2017-03-23T10:42:22.278Z,40.3
2017-03-23T10:43:31.063Z,40.41
2017-03-23T10:44:39.847Z,40.51
2017-03-23T10:45:48.633Z,40.51
2017-03-23T10:46:57.796Z,40.44
2017-03-23T10:48:06.577Z,40.49
2017-03-23T10:49:15.360Z,40.65
2017-03-23T10:50:24.108Z,40.66
2017-03-23T10:51:32.864Z,40.5
2017-03-23T10:52:41.656Z,40.5
2017-03-23T10:53:50.442Z,40.72
2017-03-23T10:54:59.535Z,40.85
2017-03-23T10:56:08.291Z,41
2017-03-23T10:57:17.348Z,41.15
2017-03-23T10:58:26.428Z,41.31
2017-03-23T10:59:35.489Z,41.41
2017-03-23T11:00:44.258Z,41.55
2017-03-23T11:01:53.038Z,41.75
2017-03-23T11:03:01.816Z,41.88
2017-03-23T11:04:10.559Z,41.97
2017-03-23T11:05:19.314Z,42.12
2017-03-23T11:06:28.096Z,42.19
2017-03-23T11:07:36.881Z,42.33
2017-03-23T11:08:45.669Z,42.33
2017-03-23T11:09:54.463Z,42.5
2017-03-23T11:11:03.213Z,42.6
2017-03-23T11:12:11.962Z,42.63
2017-03-23T11:13:20.754Z,42.79
2017-03-23T11:14:29.547Z,42.76
2017-03-23T11:15:38.326Z,42.97
2017-03-23T11:16:47.460Z,43
2017-03-23T11:17:56.217Z,43.1
2017-03-23T11:19:04.942Z,43.1
2017-03-23T11:20:13.998Z,43.19
2017-03-23T11:21:23.082Z,43.24
2017-03-23T11:22:31.829Z,43.27
2017-03-23T11:23:40.590Z,43.35
2017-03-23T11:24:49.381Z,43.5
2017-03-23T11:25:58.166Z,43.61
2017-03-23T11:27:06.953Z,43.65
2017-03-23T11:28:15.730Z,43.73
2017-03-23T11:29:24.514Z,43.74
2017-03-23T11:30:33.255Z,43.81
2017-03-23T11:31:42.005Z,43.83
2017-03-23T11:32:50.788Z,43.83
2017-03-23T11:33:59.529Z,43.95
2017-03-23T11:35:08.290Z,43.96
2017-03-23T11:36:17.076Z,44.03
2017-03-23T11:37:25.861Z,44.11
2017-03-23T11:38:34.649Z,44.29
2017-03-23T11:39:43.434Z,44.29
2017-03-23T11:40:52.388Z,44.32
2017-03-23T11:42:01.189Z,44.39
2017-03-23T11:43:09.971Z,44.42
2017-03-23T11:44:19.018Z,44.49
2017-03-23T11:45:28.078Z,44.55
2017-03-23T11:46:36.836Z,44.54
2017-03-23T11:47:45.931Z,44.59
2017-03-23T11:48:54.705Z,44.58
2017-03-23T11:50:03.485Z,44.69
2017-03-23T11:51:12.275Z,44.75
2017-03-23T11:52:21.061Z,44.83
2017-03-23T11:53:29.849Z,44.81
2017-03-23T11:54:38.625Z,44.83
2017-03-23T11:55:47.422Z,44.81
2017-03-23T11:56:56.514Z,44.81
2017-03-23T11:58:05.609Z,44.76
2017-03-23T11:59:14.399Z,44.83
2017-03-23T12:00:23.187Z,44.65
2017-03-23T12:01:32.277Z,44.33
2017-03-23T12:02:41.676Z,43.86
2017-03-23T12:03:50.465Z,43.36
2017-03-23T12:04:59.246Z,42.63
2017-03-23T12:06:08.349Z,42.06
2017-03-23T12:07:17.140Z,41.34
2017-03-23T12:08:25.883Z,40.7
2017-03-23T12:09:34.647Z,40.11
2017-03-23T12:10:43.747Z,39.48
2017-03-23T12:11:52.842Z,38.97
2017-03-23T12:13:01.627Z,38.45
2017-03-23T12:14:10.415Z,37.92
2017-03-23T12:15:19.205Z,37.37
2017-03-23T12:16:27.984Z,36.99
2017-03-23T12:17:36.769Z,36.58
2017-03-23T12:18:45.642Z,36.12
2017-03-23T12:19:54.433Z,35.89
2017-03-23T12:21:03.218Z,35.44
2017-03-23T12:22:11.963Z,35.14
2017-03-23T12:23:20.702Z,34.88
2017-03-23T12:24:29.460Z,34.58
2017-03-23T12:25:38.281Z,34.33
2017-03-23T12:26:47.027Z,33.99
2017-03-23T12:27:55.788Z,33.76
2017-03-23T12:29:04.759Z,33.46
2017-03-23T12:30:13.817Z,33.24
2017-03-23T12:31:22.908Z,33.02
2017-03-23T12:32:31.689Z,32.71
2017-03-23T12:33:40.476Z,32.51
2017-03-23T12:34:49.250Z,32.34
2017-03-23T12:35:58.304Z,32.19
2017-03-23T12:37:07.061Z,31.93
2017-03-23T12:38:15.844Z,31.74
2017-03-23T12:39:24.897Z,31.56
2017-03-23T12:40:33.653Z,31.49
2017-03-23T12:41:42.440Z,31.34
2017-03-23T12:42:51.225Z,31.14
2017-03-23T12:44:00.308Z,30.97
2017-03-23T12:45:09.089Z,30.92
2017-03-23T12:46:17.867Z,30.75
2017-03-23T12:47:26.652Z,30.66
2017-03-23T12:48:35.760Z,30.59
2017-03-23T12:49:44.549Z,30.32
2017-03-23T12:50:53.333Z,30.3
2017-03-23T12:52:02.115Z,30.21
2017-03-23T12:53:11.206Z,30.18
2017-03-23T12:54:20.296Z,29.98
2017-03-23T12:55:29.084Z,29.88
2017-03-23T12:56:37.862Z,29.75
2017-03-23T12:57:46.607Z,29.75
2017-03-23T12:58:55.399Z,29.63
2017-03-23T13:00:04.185Z,29.5
2017-03-23T13:01:13.271Z,29.42
2017-03-23T13:02:22.361Z,29.5
2017-03-23T13:03:31.450Z,29.36
2017-03-23T13:04:40.230Z,29.26
2017-03-23T13:05:49.014Z,29.17
2017-03-23T13:06:58.096Z,29.1
2017-03-23T13:08:07.141Z,29.08
2017-03-23T13:09:15.858Z,29.04
2017-03-23T13:10:24.585Z,28.88
2017-03-23T13:11:33.340Z,28.93
2017-03-23T13:12:42.154Z,28.86
2017-03-23T13:13:51.236Z,28.76
2017-03-23T13:15:00.019Z,28.78
2017-03-23T13:16:09.430Z,28.67
2017-03-23T13:17:18.227Z,28.59
2017-03-23T13:18:27.013Z,28.62
2017-03-23T13:19:35.955Z,28.57
2017-03-23T13:20:45.290Z,28.44
2017-03-23T13:21:54.039Z,28.41
2017-03-23T13:23:03.437Z,28.37
2017-03-23T13:24:12.215Z,28.35
2017-03-23T13:25:21.000Z,28.27
2017-03-23T13:26:29.748Z,28.3
2017-03-23T13:27:38.801Z,28.14
2017-03-23T13:28:47.897Z,28.08
2017-03-23T13:29:56.678Z,28.01
2017-03-23T13:31:05.966Z,28
2017-03-23T13:32:14.711Z,27.95
2017-03-23T13:33:23.459Z,28.01
2017-03-23T13:34:32.825Z,27.9
2017-03-23T13:35:41.879Z,27.98
2017-03-23T13:36:50.931Z,27.85
2017-03-23T13:37:59.689Z,27.8
2017-03-23T13:39:08.431Z,27.75
2017-03-23T13:40:17.465Z,27.68
2017-03-23T13:41:26.247Z,27.7
2017-03-23T13:42:35.033Z,27.67
2017-03-23T13:43:44.123Z,27.55
2017-03-23T13:44:52.910Z,27.55
2017-03-23T13:46:01.647Z,27.59
2017-03-23T13:47:10.404Z,27.63
2017-03-23T13:48:19.181Z,27.58
2017-03-23T13:49:27.963Z,27.51
2017-03-23T13:50:36.742Z,27.51
2017-03-23T13:51:45.518Z,27.45
2017-03-23T13:52:54.258Z,27.45
2017-03-23T13:54:03.106Z,27.47
2017-03-23T13:55:12.183Z,27.45
2017-03-23T13:56:20.962Z,27.36
2017-03-23T13:57:30.043Z,27.37
2017-03-23T13:58:38.823Z,27.35
2017-03-23T13:59:47.916Z,27.36
2017-03-23T14:00:57.003Z,27.37
2017-03-23T14:02:05.783Z,27.22
2017-03-23T14:03:14.564Z,27.25
2017-03-23T14:04:23.339Z,27.14
2017-03-23T14:05:32.117Z,27.17
2017-03-23T14:06:40.900Z,27.2
2017-03-23T14:07:49.713Z,27.14
2017-03-23T14:08:58.596Z,27.14
2017-03-23T14:10:07.374Z,27.03
2017-03-23T14:11:16.463Z,27.08
2017-03-23T14:12:25.451Z,27.1
2017-03-23T14:13:34.225Z,26.97
2017-03-23T14:14:43.061Z,26.99
2017-03-23T14:15:51.849Z,26.9
2017-03-23T14:17:00.867Z,26.88
2017-03-23T14:18:09.948Z,26.92
2017-03-23T14:19:18.723Z,26.92
2017-03-23T14:20:27.791Z,26.85
2017-03-23T14:21:36.526Z,26.85
2017-03-23T14:22:45.892Z,26.89
2017-03-23T14:23:54.974Z,26.8
2017-03-23T14:25:04.111Z,26.75
2017-03-23T14:26:13.193Z,26.83
2017-03-23T14:27:21.933Z,26.78
2017-03-23T14:28:30.950Z,26.73
2017-03-23T14:29:40.012Z,26.73
2017-03-23T14:30:49.065Z,26.75
2017-03-23T14:31:57.804Z,26.71
2017-03-23T14:33:06.828Z,26.66
2017-03-23T14:34:15.674Z,26.66
2017-03-23T14:35:24.457Z,26.63
2017-03-23T14:36:33.858Z,26.53
2017-03-23T14:37:42.637Z,26.55
2017-03-23T14:38:51.417Z,26.51
2017-03-23T14:40:00.193Z,26.53
2017-03-23T14:41:09.279Z,26.47
2017-03-23T14:42:18.350Z,26.51
2017-03-23T14:43:27.367Z,26.45
2017-03-23T14:44:36.129Z,26.4
2017-03-23T14:45:44.901Z,26.36
2017-03-23T14:46:53.681Z,26.4
2017-03-23T14:48:02.464Z,26.36
2017-03-23T14:49:11.547Z,26.38
2017-03-23T14:50:20.332Z,26.36